createdAt,value
2018-05-04T00:00:35.527Z,50.50
2018-05-04T00:05:26.407Z,50.50
2018-05-04T00:10:17.372Z,50.70
2018-05-04T00:15:08.273Z,50.70
2018-05-04T00:19:59.239Z,50.70
2018-05-04T00:24:50.161Z,50.80
2018-05-04T00:29:41.055Z,50.90
2018-05-04T00:34:32.000Z,50.90
2018-05-04T00:39:22.920Z,50.90
2018-05-04T00:44:13.847Z,51.00
2018-05-04T00:49:04.759Z,51.10
2018-05-04T00:54:08.118Z,51.20
2018-05-04T00:58:59.822Z,51.10
2018-05-04T01:03:50.726Z,51.10
2018-05-04T01:08:41.653Z,51.20
2018-05-04T01:13:32.577Z,51.30
2018-05-04T01:18:24.204Z,51.30
2018-05-04T01:23:15.142Z,51.40
2018-05-04T01:28:06.032Z,51.50
2018-05-04T01:32:56.952Z,52.20
2018-05-04T01:37:47.873Z,51.60
2018-05-04T01:42:38.797Z,51.60
2018-05-04T01:47:29.711Z,51.70
2018-05-04T01:52:20.610Z,52.00
2018-05-04T01:57:11.559Z,52.10
2018-05-04T02:02:02.474Z,51.80
2018-05-04T02:06:53.389Z,52.10
2018-05-04T02:11:44.289Z,52.10
2018-05-04T02:16:35.218Z,52.80
2018-05-04T02:21:26.117Z,52.20
2018-05-04T02:26:17.026Z,52.20
2018-05-04T02:31:07.934Z,52.20
2018-05-04T02:35:58.866Z,52.20
2018-05-04T02:40:49.777Z,52.20
2018-05-04T02:45:40.723Z,52.30
2018-05-04T02:50:31.658Z,52.40
2018-05-04T02:55:22.560Z,52.40
2018-05-04T03:00:13.474Z,52.50
2018-05-04T03:05:04.379Z,52.40
2018-05-04T03:09:55.296Z,52.60
2018-05-04T03:14:46.202Z,52.50
2018-05-04T03:19:37.112Z,52.60
2018-05-04T03:24:28.759Z,52.60
2018-05-04T03:29:19.661Z,52.60
2018-05-04T03:34:11.397Z,52.70
2018-05-04T03:39:03.027Z,52.80
2018-05-04T03:43:54.738Z,52.70
2018-05-04T03:48:45.648Z,52.70
2018-05-04T03:53:36.557Z,52.90
2018-05-04T03:58:39.994Z,52.90
2018-05-04T04:03:43.359Z,53.00
2018-05-04T04:08:34.344Z,52.80
2018-05-04T04:13:25.999Z,53.00
2018-05-04T04:18:17.646Z,53.10
2018-05-04T04:23:08.590Z,53.10
2018-05-04T04:27:59.534Z,53.10
2018-05-04T04:32:50.448Z,53.20
2018-05-04T04:37:41.358Z,53.20
2018-05-04T04:42:32.273Z,53.20
2018-05-04T04:47:23.166Z,53.20
2018-05-04T04:52:14.141Z,53.40
2018-05-04T04:57:05.150Z,53.40
2018-05-04T05:01:56.175Z,53.40
2018-05-04T05:06:46.990Z,53.50
2018-05-04T05:11:37.908Z,53.20
2018-05-04T05:16:28.801Z,53.60
2018-05-04T05:21:19.736Z,53.50
2018-05-04T05:26:10.661Z,53.60
2018-05-04T05:31:01.595Z,53.70
2018-05-04T05:35:52.498Z,54.20
2018-05-04T05:40:44.135Z,54.80
2018-05-04T05:45:35.024Z,54.70
2018-05-04T05:50:25.961Z,55.50
2018-05-04T05:55:16.847Z,55.30
2018-05-04T06:00:07.754Z,55.10
2018-05-04T06:04:58.687Z,55.30
2018-05-04T06:09:49.610Z,54.90
2018-05-04T06:14:40.513Z,54.90
2018-05-04T06:19:31.417Z,55.00
2018-05-04T06:24:22.618Z,54.90
2018-05-04T06:29:13.526Z,54.90
2018-05-04T06:34:04.462Z,55.00
2018-05-04T06:38:56.394Z,55.10
2018-05-04T06:43:47.385Z,55.00
2018-05-04T06:48:38.369Z,55.50
2018-05-04T06:53:29.268Z,55.00
2018-05-04T06:58:20.964Z,55.30
2018-05-04T07:03:12.662Z,55.30
2018-05-04T07:08:03.551Z,55.30
2018-05-04T07:12:54.458Z,55.20
2018-05-04T07:17:45.359Z,55.20
2018-05-04T07:22:36.253Z,55.10
2018-05-04T07:27:27.214Z,54.20
2018-05-04T07:32:18.106Z,54.20
2018-05-04T07:37:09.003Z,54.20
2018-05-04T07:41:59.978Z,54.30
2018-05-04T07:46:50.892Z,54.00
2018-05-04T07:51:41.903Z,53.70
2018-05-04T07:56:36.783Z,53.50
2018-05-04T08:01:27.771Z,53.20
2018-05-04T08:06:19.417Z,52.50
2018-05-04T08:11:10.401Z,52.30
2018-05-04T08:16:01.308Z,52.30
2018-05-04T08:20:52.234Z,51.80
2018-05-04T08:25:43.154Z,51.20
2018-05-04T08:30:34.066Z,50.60
2018-05-04T08:35:24.998Z,50.60
2018-05-04T08:40:15.918Z,50.60
2018-05-04T08:45:06.926Z,50.20
2018-05-04T08:49:58.598Z,50.30
2018-05-04T08:54:50.246Z,50.50
2018-05-04T08:59:41.880Z,49.60
2018-05-04T09:04:33.517Z,49.10
2018-05-04T09:09:24.425Z,49.00
2018-05-04T09:14:15.311Z,49.20
2018-05-04T09:19:06.214Z,49.30
2018-05-04T09:23:57.126Z,48.80
2018-05-04T09:28:48.014Z,48.50
2018-05-04T09:33:39.640Z,48.40
2018-05-04T09:38:31.281Z,48.20
2018-05-04T09:43:22.989Z,48.30
2018-05-04T09:48:13.892Z,48.20
2018-05-04T09:53:04.809Z,48.40
2018-05-04T09:57:55.801Z,48.50
2018-05-04T10:02:46.726Z,48.50
2018-05-04T10:07:37.691Z,48.30
2018-05-04T10:12:28.584Z,48.30
2018-05-04T10:17:19.526Z,48.20
2018-05-04T10:22:10.436Z,47.80
2018-05-04T10:27:01.351Z,48.00
2018-05-04T10:31:52.261Z,47.50
2018-05-04T10:36:43.161Z,47.10
2018-05-04T10:41:34.118Z,46.60
2018-05-04T10:46:25.028Z,46.80
2018-05-04T10:51:15.944Z,46.20
2018-05-04T10:56:08.055Z,46.00
2018-05-04T11:00:59.010Z,46.10
2018-05-04T11:05:49.941Z,46.00
2018-05-04T11:10:40.872Z,46.50
2018-05-04T11:15:31.775Z,46.80
2018-05-04T11:20:22.681Z,46.40
2018-05-04T11:25:13.694Z,46.30
2018-05-04T11:30:04.609Z,46.00
2018-05-04T11:34:55.582Z,45.90
2018-05-04T11:39:46.496Z,46.10
2018-05-04T11:44:37.409Z,45.70
2018-05-04T11:49:28.322Z,45.80
2018-05-04T11:54:19.220Z,45.70
2018-05-04T11:59:10.125Z,45.50
2018-05-04T12:04:01.092Z,45.30
2018-05-04T12:08:51.986Z,45.10
2018-05-04T12:13:42.901Z,44.30
2018-05-04T12:18:33.794Z,43.70
2018-05-04T12:23:24.706Z,43.10
2018-05-04T12:28:15.679Z,42.10
2018-05-04T12:33:06.658Z,42.20
2018-05-04T12:37:58.288Z,42.00
2018-05-04T12:42:49.929Z,41.90
2018-05-04T12:47:40.833Z,41.30
2018-05-04T12:52:31.775Z,41.20
2018-05-04T12:57:22.687Z,41.10
2018-05-04T13:02:14.360Z,41.10
2018-05-04T13:07:05.311Z,40.40
2018-05-04T13:11:57.005Z,41.00
2018-05-04T13:16:47.917Z,41.00
2018-05-04T13:21:38.833Z,40.80
2018-05-04T13:26:30.488Z,40.60
2018-05-04T13:31:21.494Z,40.50
2018-05-04T13:36:12.393Z,40.10
2018-05-04T13:41:03.370Z,40.00
2018-05-04T13:45:54.292Z,40.40
2018-05-04T13:50:45.197Z,40.20
2018-05-04T13:55:36.089Z,40.40
2018-05-04T14:00:27.767Z,40.80
2018-05-04T14:05:19.482Z,40.80
2018-05-04T14:10:10.398Z,40.60
2018-05-04T14:15:01.922Z,41.00
2018-05-04T14:19:52.849Z,41.10
2018-05-04T14:24:43.833Z,41.10
2018-05-04T14:29:34.739Z,41.00
2018-05-04T14:34:25.662Z,41.30
2018-05-04T14:39:17.318Z,43.20
2018-05-04T14:44:08.243Z,42.40
2018-05-04T14:48:59.140Z,42.90
2018-05-04T14:53:50.048Z,43.20
2018-05-04T14:58:40.971Z,43.00
2018-05-04T15:03:31.897Z,43.10
2018-05-04T15:08:22.804Z,42.80
2018-05-04T15:13:14.066Z,42.90
2018-05-04T15:18:05.033Z,43.40
2018-05-04T15:22:55.949Z,42.80
2018-05-04T15:27:46.849Z,43.00
2018-05-04T15:32:37.745Z,42.40
2018-05-04T15:37:28.699Z,43.40
2018-05-04T15:42:19.686Z,43.20
2018-05-04T15:47:11.316Z,43.60
2018-05-04T15:52:03.189Z,43.60
2018-05-04T15:56:54.842Z,43.10
2018-05-04T16:01:46.526Z,42.90
2018-05-04T16:06:38.229Z,42.70
2018-05-04T16:11:29.308Z,42.70
2018-05-04T16:16:20.341Z,43.20
2018-05-04T16:21:11.998Z,43.10
2018-05-04T16:26:02.902Z,43.00
2018-05-04T16:30:54.550Z,43.90
2018-05-04T16:35:46.192Z,43.00
2018-05-04T16:40:37.225Z,43.00
2018-05-04T16:45:28.189Z,43.20
2018-05-04T16:50:19.089Z,42.50
2018-05-04T16:55:10.749Z,42.40
2018-05-04T17:00:02.455Z,42.60
2018-05-04T17:04:54.118Z,42.40
2018-05-04T17:09:45.147Z,42.30
2018-05-04T17:14:36.073Z,42.60
2018-05-04T17:19:27.017Z,42.70
2018-05-04T17:24:17.920Z,42.80
2018-05-04T17:29:08.826Z,42.60
2018-05-04T17:33:59.755Z,43.00
2018-05-04T17:38:50.651Z,43.00
2018-05-04T17:43:41.574Z,43.10
2018-05-04T17:48:33.219Z,43.40
2018-05-04T17:53:24.934Z,43.40
2018-05-04T17:58:15.847Z,43.40
2018-05-04T18:03:06.780Z,43.30
2018-05-04T18:07:57.666Z,43.10
2018-05-04T18:12:48.676Z,43.30
2018-05-04T18:17:39.586Z,43.20
2018-05-04T18:22:30.484Z,43.30
2018-05-04T18:27:22.189Z,43.40
2018-05-04T18:32:13.107Z,43.30
2018-05-04T18:37:04.010Z,43.30
2018-05-04T18:41:54.917Z,43.40
2018-05-04T18:46:45.830Z,43.50
2018-05-04T18:51:37.463Z,43.60
2018-05-04T18:56:29.863Z,44.00
2018-05-04T19:01:21.508Z,44.00
2018-05-04T19:06:13.149Z,44.10
2018-05-04T19:11:04.787Z,44.20
2018-05-04T19:15:56.509Z,44.30
2018-05-04T19:20:47.408Z,44.30
2018-05-04T19:25:53.325Z,44.50
2018-05-04T19:30:45.032Z,44.50
2018-05-04T19:35:35.997Z,44.40
2018-05-04T19:40:26.909Z,44.60
2018-05-04T19:45:17.828Z,44.70
2018-05-04T19:50:08.749Z,44.80
2018-05-04T19:55:01.137Z,45.00
2018-05-04T19:59:52.824Z,45.00
2018-05-04T20:04:43.729Z,45.00
2018-05-04T20:09:34.625Z,45.10
2018-05-04T20:14:26.259Z,45.20
2018-05-04T20:19:17.322Z,45.20
2018-05-04T20:24:08.249Z,45.40
2018-05-04T20:28:59.225Z,45.60
2018-05-04T20:33:50.242Z,45.80
2018-05-04T20:38:43.857Z,46.00
2018-05-04T20:43:35.549Z,46.20
2018-05-04T20:48:26.436Z,46.10
2018-05-04T20:53:18.228Z,46.30
2018-05-04T20:58:09.150Z,46.20
2018-05-04T21:03:00.077Z,46.30
2018-05-04T21:07:50.980Z,46.30
2018-05-04T21:12:41.879Z,46.30
2018-05-04T21:17:33.525Z,46.50
2018-05-04T21:22:25.256Z,46.50
2018-05-04T21:27:16.944Z,46.60
2018-05-04T21:32:08.630Z,46.50
2018-05-04T21:37:00.361Z,46.50
2018-05-04T21:41:51.378Z,46.40
2018-05-04T21:46:42.277Z,46.50
2018-05-04T21:51:33.200Z,46.60
2018-05-04T21:56:24.122Z,46.60
2018-05-04T22:01:15.050Z,46.50
2018-05-04T22:06:05.974Z,46.60
2018-05-04T22:10:56.917Z,46.60
2018-05-04T22:15:48.624Z,46.80
2018-05-04T22:20:39.732Z,46.70
2018-05-04T22:25:30.632Z,46.90
2018-05-04T22:30:22.323Z,46.80
2018-05-04T22:35:13.223Z,46.80
2018-05-04T22:40:04.202Z,46.90
2018-05-04T22:44:55.962Z,46.50
2018-05-04T22:49:46.869Z,47.00
2018-05-04T22:54:38.594Z,48.10
2018-05-04T22:59:29.610Z,48.10
2018-05-04T23:04:20.629Z,48.10
2018-05-04T23:09:11.629Z,48.20
2018-05-04T23:14:02.574Z,48.20
2018-05-04T23:18:53.506Z,48.20
2018-05-04T23:23:44.417Z,48.30
2018-05-04T23:28:35.390Z,48.40
2018-05-04T23:33:27.117Z,48.60
2018-05-04T23:38:18.748Z,48.70
2018-05-04T23:43:09.645Z,48.50
2018-05-04T23:48:00.609Z,48.50
2018-05-04T23:52:52.316Z,49.00
2018-05-04T23:57:43.240Z,48.70
